Aérodrome :
LOGIN :

S'inscrire | Disclaimer

   EN    FR    IT 

 










Légende :    VFR   VFR Marginal   IFR   IFR Intensif   IFR Très Intensif
Visi : 
Plafond : 
>= 8 km
>= 3000ft
5 à 8 km
1000 à 3000 ft
1500m à 5 km
500 à 1000 ft
800 à 1500m
200 à 500 ft
< 800m
< 200 ft
Symboles :   Orages  Brouillard  Fortes neiges  Fortes précipitations  Vent > 20 kt
SIGMETs :   Divers  Orages  Givrage  Turbulence  Onde Orograph.  Cendres Volcan.







- Altitude de l'aérodrome : -15 ft
- Code IATA : RTM


EHRD - Rotterdam Zestienhoven

DERNIER METAR :
  • 181055Z AUTO VRB06KT 9999 FEW016 SCT029 BKN034 15/09 Q1028 NOSIG

METARs EXPIRÉS :
  • 181025Z AUTO 27004KT 210V330 9999 SCT030 BKN036 BKN041 14/09 Q1028 REDZUP NOSIG
  • 180955Z AUTO 34005KT 280V030 9999 SCT032 BKN040 BKN047 15/08 Q1028 NOSIG
  • 180925Z AUTO 36004KT 290V090 9999 FEW023 BKN032 OVC036 15/09 Q1028 NOSIG
  • 180855Z AUTO VRB02KT 9999 FEW043 16/09 Q1028 NOSIG
  • 180825Z AUTO VRB02KT 9999 NSC 16/09 Q1028 NOSIG

TAF TAF EHRD
Valide du 18 à 06h jusqu'au 19 à 12h UTC


180454Z 1806/1912 34004KT 9999 SCT040
BECMG 1810/1813 34010KT
BECMG 1817/1820 VRB03KT
Pas de NOTAMs connus pour ce terrain.



MET'MAP, la Météo Aéronautique d'un coup d'oeil ! - Copyright ORBIFLY Décembre 2007 - Disclaimer

ORBIFLY MET'MAP TEAM :

Programmation & Développement : Alexandra Zaïnal
Conception & Développement : Baudouin d'Aumeries
Co-Programmation & Développement : Marc-Olivier Méhu
Soutien technique & logistique : Manuel Goepfert

Contact : metmap@orbifly.com




SOURCES & CREDITS :

   NOAA